Time;durP1;ratioP1;P1;durP2;ratioP2;P2;SDS_P1;SDS_P2;PMS_P1;PMS_P2;Temp;Humidity;BMP_temperature;BMP_pressure;BME280_temperature;BME280_humidity;BME280_pressure;Samples;Min_cycle;Max_cycle;Signal;HPM_P1;HPM_P2
2024/03/13 00:01:33;;;;;;;20.80;13.73;;;12.20;94.80;;;;;;6273011;22;20015;-70
2024/03/13 00:04:19;;;;;;;20.55;13.82;;;12.20;94.90;;;;;;6274156;22;20011;-71
2024/03/13 00:07:05;;;;;;;22.10;14.52;;;12.20;95.00;;;;;;6251934;22;20035;-71
2024/03/13 00:09:54;;;;;;;23.15;15.15;;;12.20;95.00;;;;;;6274770;22;20033;-71
2024/03/13 00:12:42;;;;;;;25.50;16.00;;;12.20;95.00;;;;;;6274444;22;20004;-72
2024/03/13 00:15:28;;;;;;;20.95;15.85;;;12.20;95.20;;;;;;6251866;22;20041;-71
2024/03/13 00:18:14;;;;;;;19.65;13.77;;;12.20;95.00;;;;;;6274366;22;20011;-71
2024/03/13 00:21:00;;;;;;;19.60;13.57;;;12.20;95.10;;;;;;6272648;22;20007;-71
2024/03/13 00:23:46;;;;;;;22.98;14.48;;;12.20;95.10;;;;;;6271335;22;20015;-71
2024/03/13 00:26:33;;;;;;;20.15;13.20;;;12.20;95.10;;;;;;6273690;22;20007;-71
2024/03/13 00:29:20;;;;;;;19.27;14.07;;;12.20;95.10;;;;;;6272823;22;20012;-71
2024/03/13 00:32:07;;;;;;;23.67;15.35;;;12.10;95.10;;;;;;6273228;22;20067;-71
2024/03/13 00:34:52;;;;;;;21.55;13.40;;;12.20;95.20;;;;;;6251348;22;20343;-69
2024/03/13 00:37:38;;;;;;;21.83;14.10;;;12.20;95.20;;;;;;6273987;22;20098;-70
2024/03/13 00:40:24;;;;;;;19.77;12.82;;;12.20;95.20;;;;;;6272535;22;20073;-72
2024/03/13 00:43:10;;;;;;;23.08;15.55;;;12.20;95.10;;;;;;6273555;22;20121;-71
2024/03/13 00:45:59;;;;;;;20.23;14.45;;;12.20;95.20;;;;;;6274014;22;20363;-71
2024/03/13 00:48:45;;;;;;;21.00;14.35;;;12.20;95.20;;;;;;6274004;22;20039;-73
2024/03/13 00:51:31;;;;;;;20.33;13.05;;;12.20;95.30;;;;;;6271772;22;20463;-70
2024/03/13 00:54:17;;;;;;;20.27;13.27;;;12.20;95.30;;;;;;6272425;22;20007;-73
2024/03/13 00:57:03;;;;;;;23.25;15.30;;;12.20;95.30;;;;;;6272449;22;20039;-69
2024/03/13 00:59:49;;;;;;;19.52;13.35;;;12.10;95.40;;;;;;6272585;22;20007;-70
2024/03/13 01:02:36;;;;;;;19.67;13.68;;;12.10;95.40;;;;;;6274358;22;20502;-71
2024/03/13 01:05:22;;;;;;;20.45;14.10;;;12.10;95.50;;;;;;6249694;22;20074;-71
2024/03/13 01:08:08;;;;;;;19.58;13.93;;;12.10;95.50;;;;;;6272934;22;20003;-69
2024/03/13 01:10:54;;;;;;;21.35;13.07;;;12.10;95.50;;;;;;6272050;22;20020;-70
2024/03/13 01:13:40;;;;;;;17.25;11.65;;;12.10;95.40;;;;;;6271720;22;20011;-70
2024/03/13 01:16:26;;;;;;;17.98;12.48;;;12.00;95.50;;;;;;6248793;22;20101;-70
2024/03/13 01:19:12;;;;;;;19.02;12.35;;;12.10;95.50;;;;;;6272854;22;20069;-70
2024/03/13 01:22:12;;;;;;;18.95;12.52;;;12.00;95.50;;;;;;6273863;22;20003;-70
2024/03/13 01:24:59;;;;;;;19.08;12.60;;;12.00;95.50;;;;;;6249429;22;20061;-70
2024/03/13 01:27:46;;;;;;;21.42;13.85;;;12.00;95.50;;;;;;6250415;22;20019;-71
2024/03/13 01:30:32;;;;;;;17.88;12.32;;;12.00;95.50;;;;;;6272722;22;20329;-69
2024/03/13 01:33:17;;;;;;;17.77;11.85;;;12.00;95.50;;;;;;6274799;22;20011;-70
2024/03/13 01:36:08;;;;;;;17.92;11.32;;;12.00;95.50;;;;;;6273389;22;20035;-74
2024/03/13 01:38:54;;;;;;;19.08;12.98;;;12.00;95.50;;;;;;6273675;22;20428;-74
2024/03/13 01:57:31;;;;;;;20.48;12.50;;;12.00;95.50;;;;;;6272112;22;20007;-74
2024/03/13 02:03:24;;;;;;;19.48;11.45;;;11.90;95.60;;;;;;6275039;22;20035;-70
2024/03/13 02:06:10;;;;;;;18.65;11.32;;;11.90;95.60;;;;;;6272733;22;20448;-72
2024/03/13 02:08:57;;;;;;;17.30;11.48;;;12.00;95.60;;;;;;6272785;22;20007;-71
2024/03/13 02:11:43;;;;;;;16.88;11.68;;;12.00;95.60;;;;;;6271829;22;20016;-72
2024/03/13 02:14:29;;;;;;;18.65;12.13;;;12.00;95.50;;;;;;6274254;22;20011;-72
2024/03/13 02:17:15;;;;;;;19.10;12.38;;;12.00;95.50;;;;;;6249670;22;20011;-71
2024/03/13 02:20:03;;;;;;;15.98;10.95;;;12.00;95.50;;;;;;6272115;22;20065;-71
2024/03/13 02:22:50;;;;;;;22.27;12.82;;;12.00;95.50;;;;;;6271603;22;20062;-71
2024/03/13 02:25:36;;;;;;;20.20;13.02;;;12.00;95.50;;;;;;6272281;22;20372;-71
2024/03/13 02:28:35;;;;;;;17.83;11.35;;;12.10;95.40;;;;;;6273200;22;20004;-71
2024/03/13 02:31:21;;;;;;;19.23;12.63;;;12.00;95.40;;;;;;6273469;22;20011;-71
2024/03/13 02:34:08;;;;;;;19.60;13.40;;;12.00;95.50;;;;;;6273437;22;20019;-72
2024/03/13 02:36:54;;;;;;;17.90;12.18;;;12.00;95.50;;;;;;6249974;22;20039;-71
2024/03/13 02:39:40;;;;;;;19.85;13.95;;;12.00;95.60;;;;;;6270988;22;20019;-71
2024/03/13 02:42:26;;;;;;;19.00;12.43;;;12.00;95.60;;;;;;6272593;22;20007;-71
2024/03/13 02:45:13;;;;;;;20.88;12.82;;;12.00;95.60;;;;;;6271026;22;20008;-71
2024/03/13 02:47:59;;;;;;;20.30;13.32;;;12.00;95.70;;;;;;6272698;22;20007;-71
2024/03/13 02:50:45;;;;;;;21.27;14.55;;;12.00;95.70;;;;;;6271232;22;20093;-71
2024/03/13 02:53:31;;;;;;;19.65;13.57;;;12.00;95.80;;;;;;6271783;22;20010;-72
2024/03/13 02:56:17;;;;;;;19.42;13.68;;;12.00;95.80;;;;;;6273144;22;20046;-71
2024/03/13 02:59:03;;;;;;;24.15;13.93;;;12.00;95.90;;;;;;6273558;22;20349;-72
2024/03/13 03:01:49;;;;;;;19.25;13.88;;;12.10;95.90;;;;;;6271676;22;20007;-73
2024/03/13 03:04:35;;;;;;;21.17;14.32;;;12.00;95.90;;;;;;6273201;22;20003;-72
2024/03/13 03:07:21;;;;;;;25.73;14.68;;;12.00;95.90;;;;;;6273737;22;20027;-71
2024/03/13 03:10:07;;;;;;;22.00;14.52;;;12.00;95.90;;;;;;6273412;22;20019;-71
2024/03/13 03:12:53;;;;;;;20.85;13.73;;;12.00;96.00;;;;;;6266146;22;20007;-70
2024/03/13 03:15:39;;;;;;;20.02;14.00;;;12.00;96.00;;;;;;6295410;22;20015;-71
2024/03/13 03:18:25;;;;;;;21.85;15.30;;;12.00;96.10;;;;;;6283390;22;20034;-71
2024/03/13 03:21:12;;;;;;;22.88;14.25;;;12.00;96.10;;;;;;6281083;22;20012;-71
2024/03/13 03:23:58;;;;;;;23.00;15.57;;;12.00;96.10;;;;;;6273777;22;20043;-71
2024/03/13 03:26:44;;;;;;;20.63;13.77;;;12.00;96.10;;;;;;6272987;22;20003;-70
2024/03/13 03:29:30;;;;;;;22.05;15.23;;;11.90;96.10;;;;;;6272104;22;20016;-70
2024/03/13 03:32:16;;;;;;;20.55;14.38;;;11.90;96.20;;;;;;6273728;22;20099;-70
2024/03/13 03:35:03;;;;;;;23.40;15.20;;;11.90;96.20;;;;;;6273004;22;20012;-71
2024/03/13 03:37:49;;;;;;;24.55;15.93;;;11.80;96.20;;;;;;6271295;22;20492;-71
2024/03/13 03:40:35;;;;;;;25.58;15.90;;;11.80;96.20;;;;;;6271195;22;20012;-71
2024/03/13 03:43:21;;;;;;;22.77;15.27;;;11.80;96.20;;;;;;6271071;22;20038;-71
2024/03/13 03:46:07;;;;;;;23.88;17.08;;;11.80;96.30;;;;;;6270615;22;20428;-71
2024/03/13 03:48:53;;;;;;;24.50;16.27;;;11.80;96.30;;;;;;6252877;22;20042;-71
2024/03/13 03:51:39;;;;;;;24.17;15.70;;;11.80;96.20;;;;;;6271120;22;20511;-71
2024/03/13 03:54:25;;;;;;;24.55;16.23;;;11.80;96.30;;;;;;6270683;22;20379;-71
2024/03/13 03:57:11;;;;;;;26.35;17.17;;;11.80;96.40;;;;;;6271395;22;20090;-70
2024/03/13 03:59:57;;;;;;;25.02;16.33;;;11.80;96.30;;;;;;6272947;22;20415;-70
2024/03/13 04:02:43;;;;;;;22.30;15.75;;;11.80;96.30;;;;;;6272252;22;20065;-71
2024/03/13 04:05:29;;;;;;;23.27;15.80;;;11.70;96.30;;;;;;6272424;22;20458;-71
2024/03/13 04:08:15;;;;;;;23.50;16.85;;;11.70;96.30;;;;;;6271748;22;20011;-65
2024/03/13 04:11:01;;;;;;;24.58;15.57;;;11.70;96.30;;;;;;6272244;22;20089;-65
2024/03/13 04:13:47;;;;;;;26.00;17.08;;;11.60;96.40;;;;;;6271306;22;20004;-66
2024/03/13 04:16:33;;;;;;;25.02;16.20;;;11.50;96.40;;;;;;6250949;22;20039;-66
2024/03/13 04:19:19;;;;;;;26.02;17.40;;;11.50;96.40;;;;;;6274276;22;20008;-66
2024/03/13 04:22:07;;;;;;;24.52;16.27;;;11.40;96.50;;;;;;6273320;22;20041;-66
2024/03/13 04:24:52;;;;;;;22.17;15.50;;;11.40;96.50;;;;;;6271651;22;20018;-66
2024/03/13 04:27:39;;;;;;;27.85;18.27;;;11.30;96.60;;;;;;6250821;22;20066;-66
2024/03/13 04:30:25;;;;;;;26.35;16.98;;;11.30;96.60;;;;;;6252337;22;20016;-67
2024/03/13 04:33:11;;;;;;;22.95;15.48;;;11.20;96.70;;;;;;6274080;22;20003;-67
2024/03/13 04:35:58;;;;;;;25.88;16.75;;;11.20;96.70;;;;;;6252160;22;20010;-67
2024/03/13 04:38:50;;;;;;;27.30;17.42;;;11.20;96.80;;;;;;6273423;22;20012;-67
2024/03/13 04:41:39;;;;;;;25.80;16.38;;;11.10;96.80;;;;;;6271949;22;20019;-67
2024/03/13 04:44:27;;;;;;;29.67;18.75;;;11.10;96.80;;;;;;6273556;22;20011;-67
2024/03/13 04:47:13;;;;;;;27.42;17.45;;;11.00;96.90;;;;;;6274182;22;20004;-67
2024/03/13 04:49:59;;;;;;;26.15;17.40;;;10.90;96.90;;;;;;6274037;22;20051;-67
2024/03/13 04:52:45;;;;;;;27.38;17.75;;;10.90;97.00;;;;;;6274644;22;20506;-67
2024/03/13 04:55:31;;;;;;;29.95;16.92;;;10.80;97.00;;;;;;6276001;22;20035;-67
2024/03/13 04:58:17;;;;;;;25.50;16.45;;;10.70;97.20;;;;;;6273795;22;20015;-66
2024/03/13 05:01:03;;;;;;;24.92;16.65;;;10.70;97.20;;;;;;6274032;22;20007;-67
2024/03/13 05:03:49;;;;;;;31.23;17.83;;;10.60;97.30;;;;;;6272488;22;20011;-67
2024/03/13 05:06:35;;;;;;;26.38;17.02;;;10.60;97.40;;;;;;6274058;22;20065;-67
2024/03/13 05:09:21;;;;;;;28.17;17.30;;;10.60;97.40;;;;;;6272297;22;20351;-67
2024/03/13 05:12:07;;;;;;;24.63;15.98;;;10.50;97.40;;;;;;6273311;22;20344;-66
2024/03/13 05:14:53;;;;;;;27.55;17.88;;;10.50;97.50;;;;;;6274340;22;20008;-65
2024/03/13 05:17:39;;;;;;;27.23;17.15;;;10.50;97.60;;;;;;6272223;22;20012;-67
2024/03/13 05:20:25;;;;;;;26.40;17.48;;;10.40;97.60;;;;;;6272496;22;20011;-67
2024/03/13 05:23:10;;;;;;;28.75;17.98;;;10.40;97.60;;;;;;6273258;22;20333;-67
2024/03/13 05:25:56;;;;;;;30.55;17.25;;;10.40;97.70;;;;;;6273496;22;20042;-67
2024/03/13 05:28:42;;;;;;;28.52;17.80;;;10.40;97.70;;;;;;6271791;22;20322;-66
2024/03/13 05:31:29;;;;;;;26.00;17.33;;;10.30;97.80;;;;;;6273404;22;20026;-66
2024/03/13 05:34:16;;;;;;;26.85;17.15;;;10.20;97.80;;;;;;6273157;22;20078;-66
2024/03/13 05:37:02;;;;;;;25.48;17.30;;;10.30;97.90;;;;;;6272676;22;20340;-67
2024/03/13 05:39:51;;;;;;;25.85;17.23;;;10.20;97.90;;;;;;6271427;22;20019;-67
2024/03/13 05:42:39;;;;;;;28.30;17.40;;;10.20;98.00;;;;;;6273148;22;20042;-66
2024/03/13 05:45:24;;;;;;;32.30;17.60;;;10.10;98.10;;;;;;6272146;22;20394;-69
2024/03/13 05:48:10;;;;;;;26.23;17.52;;;10.10;98.10;;;;;;6273807;22;20019;-65
2024/03/13 05:50:56;;;;;;;28.13;18.23;;;10.10;98.20;;;;;;6273285;22;20023;-67
2024/03/13 05:53:42;;;;;;;31.58;17.85;;;10.10;98.20;;;;;;6273260;22;20014;-67
2024/03/13 05:56:28;;;;;;;28.25;17.48;;;10.10;98.30;;;;;;6273801;22;20018;-67
2024/03/13 05:59:14;;;;;;;29.85;18.88;;;10.10;98.30;;;;;;6272291;22;20015;-66
2024/03/13 06:02:00;;;;;;;31.38;18.00;;;10.10;98.30;;;;;;6273057;22;20022;-65
2024/03/13 06:04:46;;;;;;;37.60;19.65;;;10.10;98.40;;;;;;6272803;22;20446;-69
2024/03/13 06:07:32;;;;;;;30.80;18.85;;;10.20;98.40;;;;;;6271965;22;20459;-68
2024/03/13 06:10:18;;;;;;;30.58;18.13;;;10.10;98.40;;;;;;6271818;22;20023;-68
2024/03/13 06:13:04;;;;;;;27.85;18.58;;;10.10;98.50;;;;;;6272209;22;20007;-65
2024/03/13 06:15:50;;;;;;;27.65;17.98;;;10.10;98.60;;;;;;6270491;22;20016;-66
2024/03/13 06:18:37;;;;;;;27.48;18.67;;;10.10;98.70;;;;;;6272166;22;20130;-66
2024/03/13 06:21:23;;;;;;;32.60;18.55;;;10.20;98.70;;;;;;6271962;22;20499;-65
2024/03/13 06:24:09;;;;;;;33.38;19.63;;;10.10;98.80;;;;;;6273240;22;20008;-65
2024/03/13 06:26:58;;;;;;;29.98;19.02;;;10.20;98.80;;;;;;6250698;22;20016;-65
2024/03/13 06:29:58;;;;;;;35.00;19.45;;;10.20;98.90;;;;;;6273171;22;20082;-64
2024/03/13 06:32:45;;;;;;;30.02;18.10;;;10.20;98.90;;;;;;6273918;22;20030;-65
2024/03/13 06:35:31;;;;;;;30.05;18.90;;;10.30;98.90;;;;;;6273519;22;20003;-65
2024/03/13 06:38:17;;;;;;;33.65;19.75;;;10.30;98.90;;;;;;6278926;22;20011;-64
2024/03/13 06:41:03;;;;;;;27.67;18.23;;;10.30;98.90;;;;;;6291998;22;20020;-64
2024/03/13 06:43:49;;;;;;;27.63;18.38;;;10.40;99.10;;;;;;6277306;22;20095;-64
2024/03/13 06:46:35;;;;;;;27.85;17.95;;;10.40;98.90;;;;;;6271710;22;20008;-66
2024/03/13 06:49:21;;;;;;;29.77;19.33;;;10.50;98.90;;;;;;6273291;22;20020;-64
2024/03/13 06:52:12;;;;;;;31.92;19.83;;;10.50;98.90;;;;;;6271292;22;20026;-63
2024/03/13 06:54:59;;;;;;;33.63;18.38;;;10.50;98.80;;;;;;6271442;22;20083;-65
2024/03/13 06:57:45;;;;;;;28.75;18.80;;;10.60;98.90;;;;;;6275202;22;20011;-64
2024/03/13 07:00:32;;;;;;;31.75;18.70;;;10.60;98.90;;;;;;6272469;22;20008;-65
2024/03/13 07:03:18;;;;;;;34.97;19.35;;;10.60;98.90;;;;;;6249788;22;20090;-65
2024/03/13 07:06:04;;;;;;;30.45;18.15;;;10.60;98.90;;;;;;6272852;22;20472;-65
2024/03/13 07:08:50;;;;;;;29.75;17.75;;;10.70;98.90;;;;;;6272174;22;20096;-66
2024/03/13 07:11:37;;;;;;;36.35;21.17;;;10.70;98.90;;;;;;6272511;22;20506;-66
2024/03/13 07:14:23;;;;;;;30.02;19.33;;;10.70;98.90;;;;;;6269409;22;20344;-67
2024/03/13 07:17:10;;;;;;;33.10;21.13;;;10.70;99.00;;;;;;6269150;22;20011;-67
2024/03/13 07:19:57;;;;;;;28.42;17.90;;;10.70;98.90;;;;;;6272179;22;20003;-67
2024/03/13 07:22:43;;;;;;;36.55;21.13;;;10.80;98.90;;;;;;6268810;22;20090;-67
2024/03/13 07:25:29;;;;;;;31.65;18.90;;;10.80;98.90;;;;;;6271124;22;20194;-68
2024/03/13 07:28:16;;;;;;;33.90;20.90;;;10.80;99.00;;;;;;6270061;22;20069;-67
2024/03/13 07:31:03;;;;;;;30.88;19.75;;;10.90;98.90;;;;;;6271331;22;20055;-66
2024/03/13 07:33:50;;;;;;;30.38;19.58;;;10.90;98.90;;;;;;6273210;22;20344;-67
2024/03/13 07:36:37;;;;;;;34.47;21.90;;;11.00;98.90;;;;;;6270679;22;20061;-66
2024/03/13 07:39:25;;;;;;;30.98;19.95;;;11.00;98.90;;;;;;6270835;22;20043;-67
2024/03/13 07:42:11;;;;;;;33.58;20.05;;;11.00;98.90;;;;;;6271300;22;20023;-64
2024/03/13 07:44:57;;;;;;;31.75;20.52;;;11.00;99.00;;;;;;6270273;22;20007;-67
2024/03/13 07:47:44;;;;;;;30.90;19.63;;;11.10;98.90;;;;;;6269432;22;20073;-67
2024/03/13 07:50:29;;;;;;;32.15;20.63;;;11.20;98.90;;;;;;6271917;22;20027;-67
2024/03/13 07:53:15;;;;;;;32.05;19.70;;;11.30;98.90;;;;;;6273051;22;20039;-67
2024/03/13 07:56:02;;;;;;;29.58;20.23;;;11.30;98.90;;;;;;6273586;22;20145;-66
2024/03/13 07:58:49;;;;;;;36.45;20.00;;;11.40;98.80;;;;;;6272737;22;20512;-65
2024/03/13 08:01:41;;;;;;;33.90;21.98;;;11.40;98.80;;;;;;6272665;22;20011;-68
2024/03/13 08:04:27;;;;;;;34.88;20.80;;;11.50;98.70;;;;;;6271852;22;20356;-66
2024/03/13 08:07:14;;;;;;;31.55;20.70;;;11.50;98.60;;;;;;6272498;22;20377;-67
2024/03/13 08:10:00;;;;;;;34.97;21.65;;;11.60;98.60;;;;;;6274725;22;20175;-66
2024/03/13 08:12:46;;;;;;;30.67;20.48;;;11.60;98.60;;;;;;6271703;22;20440;-67
2024/03/13 08:15:32;;;;;;;33.35;21.73;;;11.70;98.60;;;;;;6271591;22;20015;-64
2024/03/13 08:18:19;;;;;;;32.92;20.17;;;11.70;98.50;;;;;;6271752;22;20141;-65
2024/03/13 08:21:05;;;;;;;31.08;19.90;;;11.80;98.50;;;;;;6272183;22;20007;-65
2024/03/13 08:23:51;;;;;;;36.00;20.27;;;11.80;98.40;;;;;;6273139;22;20039;-65
2024/03/13 08:26:37;;;;;;;35.35;20.80;;;11.80;98.30;;;;;;6272571;22;20018;-66
2024/03/13 08:29:23;;;;;;;29.67;19.85;;;11.90;98.20;;;;;;6273924;22;20004;-65
2024/03/13 08:32:09;;;;;;;31.33;20.33;;;11.90;98.10;;;;;;6273753;22;20466;-65
2024/03/13 08:34:55;;;;;;;30.83;18.63;;;11.90;98.00;;;;;;6269138;22;20003;-65
2024/03/13 08:37:41;;;;;;;30.08;18.65;;;11.90;97.90;;;;;;6270443;22;20024;-66
2024/03/13 08:40:28;;;;;;;29.60;19.23;;;12.00;97.80;;;;;;6273928;22;20015;-65
2024/03/13 08:43:18;;;;;;;27.48;16.75;;;12.10;97.70;;;;;;6272159;22;20050;-67
2024/03/13 08:46:04;;;;;;;30.63;18.15;;;12.20;97.60;;;;;;6253180;22;20343;-67
2024/03/13 08:48:52;;;;;;;28.92;18.02;;;12.10;97.40;;;;;;6273444;22;20015;-65
2024/03/13 08:51:38;;;;;;;27.38;18.08;;;12.20;97.30;;;;;;6272681;22;20155;-66
2024/03/13 08:54:24;;;;;;;27.77;17.70;;;12.20;97.30;;;;;;6272764;22;20022;-62
2024/03/13 08:57:10;;;;;;;26.65;17.80;;;12.30;97.30;;;;;;6272869;22;20015;-63
2024/03/13 08:59:57;;;;;;;26.80;16.83;;;12.40;97.10;;;;;;6266505;22;20012;-63
2024/03/13 09:02:43;;;;;;;28.65;17.58;;;12.40;97.00;;;;;;6269861;22;20118;-62
2024/03/13 09:05:32;;;;;;;24.38;16.40;;;12.40;97.00;;;;;;6273227;22;20011;-62
2024/03/13 09:08:18;;;;;;;24.77;15.27;;;12.40;97.10;;;;;;6270608;22;20533;-62
2024/03/13 09:11:04;;;;;;;28.65;16.70;;;12.50;96.80;;;;;;6271776;22;20356;-62
2024/03/13 09:13:50;;;;;;;27.23;16.73;;;12.60;96.80;;;;;;6272808;22;20348;-63
2024/03/13 09:16:36;;;;;;;24.30;15.40;;;12.60;96.60;;;;;;6272741;22;20511;-62
2024/03/13 09:19:22;;;;;;;26.38;15.25;;;12.60;96.40;;;;;;6273339;22;20008;-63
2024/03/13 09:22:17;;;;;;;23.25;14.02;;;12.70;96.30;;;;;;6274034;22;20008;-63
2024/03/13 09:25:03;;;;;;;;;;;12.80;96.20;;;;;;6272787;22;20018;-62
2024/03/13 09:27:49;;;;;;;23.52;14.15;;;12.80;96.40;;;;;;6272655;22;19942;-62
2024/03/13 09:30:35;;;;;;;24.10;14.57;;;12.80;96.10;;;;;;6273849;22;20030;-63
2024/03/13 09:33:21;;;;;;;24.50;14.32;;;12.90;95.90;;;;;;6272716;22;20014;-63
2024/03/13 09:36:12;;;;;;;21.50;13.55;;;12.90;95.60;;;;;;6273383;22;20510;-63
2024/03/13 09:38:59;;;;;;;20.63;13.43;;;12.90;95.60;;;;;;6271465;22;20348;-63
2024/03/13 09:41:47;;;;;;;22.85;13.77;;;13.00;95.50;;;;;;6271113;22;20008;-63
2024/03/13 09:44:34;;;;;;;23.75;14.23;;;13.10;95.30;;;;;;6272635;22;20012;-63
2024/03/13 09:47:24;;;;;;;23.42;13.13;;;13.10;95.20;;;;;;6272863;22;20008;-64
2024/03/13 09:50:12;;;;;;;21.10;12.95;;;13.10;95.00;;;;;;6272539;22;20018;-62
2024/03/13 09:52:58;;;;;;;21.63;12.48;;;13.10;94.80;;;;;;6272469;22;20019;-62
2024/03/13 09:55:45;;;;;;;22.55;12.38;;;13.20;94.80;;;;;;6273150;22;20011;-63
2024/03/13 09:58:33;;;;;;;22.35;13.88;;;13.20;94.70;;;;;;6248808;22;20015;-63
2024/03/13 10:01:26;;;;;;;26.05;13.40;;;13.20;94.60;;;;;;6273487;22;20440;-63
2024/03/13 10:04:20;;;;;;;28.17;14.88;;;13.20;94.70;;;;;;6271876;22;20012;-64
2024/03/13 10:07:11;;;;;;;25.23;13.25;;;13.30;94.50;;;;;;6293448;22;20055;-63
2024/03/13 10:09:58;;;;;;;25.10;15.10;;;13.30;94.40;;;;;;6289431;22;20004;-63
2024/03/13 10:12:46;;;;;;;23.65;13.65;;;13.40;94.30;;;;;;6249843;22;20073;-63
2024/03/13 10:15:32;;;;;;;21.38;13.60;;;13.50;94.30;;;;;;6249061;22;20014;-63
2024/03/13 10:18:20;;;;;;;24.40;14.02;;;13.50;94.30;;;;;;6272314;22;20394;-63
2024/03/13 10:21:13;;;;;;;20.02;12.02;;;13.60;94.20;;;;;;6272405;22;20027;-63
2024/03/13 10:23:59;;;;;;;22.10;13.60;;;13.60;94.10;;;;;;6249887;22;20073;-63
2024/03/13 10:26:47;;;;;;;22.80;14.95;;;13.70;94.10;;;;;;6271754;22;20007;-63
2024/03/13 10:29:33;;;;;;;22.63;13.07;;;13.70;94.00;;;;;;6271416;22;20086;-63
2024/03/13 10:32:21;;;;;;;19.50;12.90;;;13.80;94.00;;;;;;6271225;22;20011;-63
2024/03/13 10:35:10;;;;;;;22.98;13.93;;;13.90;93.90;;;;;;6274985;22;20007;-63
2024/03/13 10:37:57;;;;;;;21.67;13.73;;;13.90;93.70;;;;;;6271619;22;20541;-63
2024/03/13 10:40:43;;;;;;;19.08;11.65;;;14.00;93.80;;;;;;6272496;22;20007;-63
2024/03/13 10:43:33;;;;;;;20.50;13.15;;;14.10;93.40;;;;;;6272492;22;20008;-64
2024/03/13 10:46:18;;;;;;;22.38;13.88;;;14.10;93.30;;;;;;6273418;22;20008;-64
2024/03/13 10:49:06;;;;;;;23.30;14.25;;;14.20;93.10;;;;;;6271904;22;20042;-63
2024/03/13 10:52:01;;;;;;;22.92;13.23;;;14.20;93.00;;;;;;6270163;22;20074;-63
2024/03/13 10:54:48;;;;;;;20.80;13.63;;;14.30;92.90;;;;;;6272507;22;20035;-64
2024/03/13 10:57:37;;;;;;;22.30;13.20;;;14.20;93.00;;;;;;6271086;22;20073;-63
2024/03/13 11:00:23;;;;;;;19.92;12.63;;;14.30;93.00;;;;;;6271985;22;20004;-64
2024/03/13 11:03:10;;;;;;;22.88;13.13;;;14.30;92.90;;;;;;6271498;22;20012;-63
2024/03/13 11:05:57;;;;;;;18.02;11.82;;;14.40;92.80;;;;;;6272373;22;20004;-62
2024/03/13 11:08:43;;;;;;;21.88;12.50;;;14.50;92.80;;;;;;6270951;22;20062;-64
2024/03/13 11:11:35;;;;;;;17.38;10.90;;;14.60;92.70;;;;;;6272461;22;20046;-64
2024/03/13 11:14:22;;;;;;;22.48;12.55;;;14.70;92.40;;;;;;6271622;22;20007;-63
2024/03/13 11:17:13;;;;;;;17.40;12.07;;;14.80;92.30;;;;;;6271031;22;20015;-64
2024/03/13 11:20:14;;;;;;;22.08;12.57;;;14.90;92.00;;;;;;6270464;22;20424;-64
2024/03/13 11:23:05;;;;;;;18.98;11.40;;;15.00;92.10;;;;;;6271364;22;20012;-64
2024/03/13 11:25:52;;;;;;;19.63;12.32;;;15.00;91.90;;;;;;6273441;22;20008;-63
2024/03/13 11:28:39;;;;;;;18.60;11.50;;;15.10;91.90;;;;;;6272700;22;20008;-64
2024/03/13 11:31:26;;;;;;;21.25;13.45;;;15.20;91.70;;;;;;6273798;22;20023;-64
2024/03/13 11:34:12;;;;;;;17.95;11.85;;;15.30;91.60;;;;;;6251199;22;20039;-64
2024/03/13 11:36:58;;;;;;;18.10;11.85;;;15.30;91.50;;;;;;6274100;22;20004;-64
2024/03/13 11:39:46;;;;;;;19.20;12.23;;;15.30;91.50;;;;;;6272379;22;20434;-64
2024/03/13 11:42:32;;;;;;;20.45;12.73;;;15.30;91.40;;;;;;6274125;22;20035;-63
2024/03/13 11:45:19;;;;;;;14.70;10.02;;;15.40;91.30;;;;;;6274307;22;20040;-64
2024/03/13 11:48:15;;;;;;;16.02;9.75;;;15.50;91.10;;;;;;6273733;22;20014;-64
2024/03/13 11:51:01;;;;;;;14.45;9.65;;;15.60;90.90;;;;;;6274124;22;20022;-63
2024/03/13 11:53:48;;;;;;;16.80;9.98;;;15.60;90.70;;;;;;6272896;22;20077;-63
2024/03/13 11:56:34;;;;;;;15.40;9.90;;;15.70;90.60;;;;;;6272726;22;20019;-63
2024/03/13 11:59:22;;;;;;;13.77;9.73;;;15.80;90.40;;;;;;6273622;22;20008;-63
2024/03/13 12:02:33;;;;;;;15.93;9.60;;;15.80;90.30;;;;;;6272657;22;20043;-64
2024/03/13 12:05:32;;;;;;;20.38;9.98;;;15.80;90.20;;;;;;6273178;22;20035;-63
2024/03/13 12:08:18;;;;;;;12.45;8.50;;;15.90;90.00;;;;;;6273290;22;20086;-63
2024/03/13 12:11:04;;;;;;;20.45;9.90;;;15.80;89.70;;;;;;6250966;22;20094;-64
2024/03/13 12:13:50;;;;;;;16.08;10.48;;;15.90;89.40;;;;;;6274192;22;20023;-63
2024/03/13 12:16:36;;;;;;;13.65;8.43;;;15.90;88.90;;;;;;6273069;22;20011;-64
2024/03/13 12:19:26;;;;;;;12.35;8.43;;;15.90;89.00;;;;;;6274109;22;20036;-63
2024/03/13 12:22:13;;;;;;;11.52;8.15;;;15.90;88.60;;;;;;6273042;22;20008;-63
2024/03/13 12:24:59;;;;;;;15.20;9.05;;;15.90;88.30;;;;;;6273094;22;20375;-64
2024/03/13 12:27:47;;;;;;;14.63;9.48;;;16.00;88.00;;;;;;6273784;22;20012;-63
2024/03/13 12:30:37;;;;;;;11.90;8.35;;;16.00;87.50;;;;;;6250594;22;20069;-63
2024/03/13 12:33:24;;;;;;;12.93;8.35;;;16.00;87.40;;;;;;6273873;22;20016;-63
2024/03/13 12:36:10;;;;;;;18.67;9.48;;;16.00;87.20;;;;;;6274665;22;20019;-64
2024/03/13 12:38:57;;;;;;;10.65;7.70;;;16.00;87.20;;;;;;6273569;22;20018;-63
2024/03/13 12:41:47;;;;;;;15.02;9.27;;;16.00;86.80;;;;;;6272117;22;20039;-63
2024/03/13 12:44:33;;;;;;;15.05;9.10;;;16.00;86.50;;;;;;6271906;22;20003;-62
2024/03/13 12:47:19;;;;;;;21.63;8.85;;;16.00;86.20;;;;;;6273954;22;20043;-63
2024/03/13 12:50:09;;;;;;;21.77;9.57;;;16.10;86.10;;;;;;6273287;22;20035;-64
2024/03/13 12:52:55;;;;;;;16.35;8.43;;;16.00;85.70;;;;;;6273875;22;20051;-63
2024/03/13 12:55:41;;;;;;;13.55;9.07;;;16.10;85.80;;;;;;6250359;22;20091;-62
2024/03/13 12:58:27;;;;;;;13.85;7.90;;;16.10;85.90;;;;;;6272844;22;20022;-63
2024/03/13 13:01:13;;;;;;;16.30;9.25;;;16.10;85.30;;;;;;6273411;22;20000;-63
2024/03/13 13:03:59;;;;;;;14.50;8.18;;;16.10;85.10;;;;;;6274178;22;20046;-63
2024/03/13 13:06:48;;;;;;;11.77;8.32;;;16.10;84.70;;;;;;6273093;22;20402;-63
2024/03/13 13:09:34;;;;;;;11.07;7.40;;;16.10;84.60;;;;;;6273975;22;20011;-63
2024/03/13 13:12:22;;;;;;;12.90;8.38;;;16.20;84.40;;;;;;6273029;22;20042;-63
2024/03/13 13:15:12;;;;;;;12.73;8.20;;;16.20;84.30;;;;;;6250867;22;20011;-63
2024/03/13 13:17:58;;;;;;;14.43;8.00;;;16.30;84.20;;;;;;6273931;22;20015;-64
2024/03/13 13:20:44;;;;;;;16.70;8.60;;;16.30;83.90;;;;;;6274285;22;20082;-63
2024/03/13 13:23:30;;;;;;;12.18;7.75;;;16.40;83.80;;;;;;6273938;22;20020;-64
2024/03/13 13:26:16;;;;;;;12.68;7.78;;;16.50;83.90;;;;;;6273386;22;20085;-63
2024/03/13 13:29:02;;;;;;;12.18;7.63;;;16.60;83.60;;;;;;6274082;22;20024;-64
2024/03/13 13:31:48;;;;;;;10.40;7.60;;;16.60;83.20;;;;;;6276965;22;20015;-64
2024/03/13 13:34:35;;;;;;;10.65;7.57;;;16.70;82.80;;;;;;6295142;22;20007;-64
2024/03/13 13:37:21;;;;;;;16.70;8.10;;;16.70;82.60;;;;;;6286963;22;20063;-64
2024/03/13 13:40:22;;;;;;;12.68;8.35;;;16.70;82.50;;;;;;6273878;22;20015;-63
2024/03/13 13:43:09;;;;;;;11.90;7.47;;;16.70;82.10;;;;;;6271516;22;20014;-64
2024/03/13 13:45:55;;;;;;;11.82;7.38;;;16.70;82.20;;;;;;6273842;22;20014;-64
2024/03/13 13:48:41;;;;;;;12.57;7.72;;;16.80;81.90;;;;;;6273131;22;20069;-64
2024/03/13 13:51:27;;;;;;;12.07;7.50;;;16.80;81.50;;;;;;6273544;22;20058;-64
2024/03/13 13:54:13;;;;;;;11.30;7.97;;;16.80;81.50;;;;;;6273502;22;20434;-64
2024/03/13 13:56:59;;;;;;;11.35;7.03;;;16.90;81.50;;;;;;6273183;22;20089;-63
2024/03/13 13:59:45;;;;;;;12.25;7.82;;;16.80;81.50;;;;;;6273833;22;20010;-64
2024/03/13 14:02:31;;;;;;;10.85;7.55;;;16.70;81.20;;;;;;6273688;22;20039;-64
2024/03/13 14:05:17;;;;;;;22.02;8.18;;;16.80;81.10;;;;;;6274356;22;20011;-64
2024/03/13 14:08:05;;;;;;;15.52;8.25;;;16.80;81.20;;;;;;6273460;22;20016;-64
2024/03/13 14:10:54;;;;;;;12.05;8.10;;;16.70;80.90;;;;;;6271393;22;20023;-63
2024/03/13 14:13:44;;;;;;;12.13;7.65;;;16.70;80.90;;;;;;6272438;22;20440;-62
2024/03/13 14:16:29;;;;;;;11.90;8.10;;;16.70;80.80;;;;;;6273242;22;20043;-63
2024/03/13 14:19:15;;;;;;;10.07;7.57;;;16.80;80.80;;;;;;6273025;22;20011;-63
2024/03/13 14:22:02;;;;;;;14.52;8.55;;;16.80;80.80;;;;;;6249456;22;20087;-64
2024/03/13 14:24:50;;;;;;;13.73;7.90;;;16.80;80.50;;;;;;6273396;22;20031;-63
2024/03/13 14:27:36;;;;;;;13.30;8.52;;;16.70;80.40;;;;;;6273009;22;20043;-64